シンガポール/チャンギ の空港の天気 - METARとTAF

シンガポール・チャンギ国際空港 ( WSSS / SIN ) - シンガポール Changi
飛行場実況気象(Metar)
観測時間01/19 09:00 SGT (01/19 01:00 UTC)
風向・風速北 3m/s
視程9000m
天気現象
少しの雲 雲底高度 550m
全天の8割程度の雲 雲底高度 9140m
気温26℃
湿度79%
気圧1012hPa
METARWSSS 190100Z 35005KT 320V020 9000 FEW018 BKN300 26/22 Q1012 NOSIG
過去の天気等 Google飛行場航空写真 Wunderground天気予報

過去48時間のMETAR

飛行場予報(TAF)
発表時間: 1/19 07:00 SGT (1/18 23:00 UTC)
予報対象時間: 19日8時 SGT ~ 20日14時 SGT
風向・風速北 6m/s
視程10km以上
全天の4割程度の雲 雲底高度 460m
TAF WSSS 182300Z 1900/2006 01011KT 9999 SCT015